Broen, Sweden

2:07 PM CEST on August 21, 2014 (GMT +0200)
Eftra | Change Station
CLOSE
Current Station
Personal Weather Station
Location: Falkenberg, Halland
Elevation: 146 ft
Nearby Weather Stations

Elev 146 ft 56.86 °N, 12.65 °E | Updated 5 seconds ago

Scattered Clouds
Scattered Clouds
63.3 °F
Feels Like 63.3 °F
N
11.1
Wind Variable Wind from SW
Gusts 18.1 mph

Today
High -- | Low -- °F
--% Chance of Precip.
Yesterday
High -- | Low -- °F
Precip. -- in
5:48 AM 8:34 PM
Waning Crescent, 14% visible
Pressure 29.83 in
Visibility 6.2 miles
Clouds Few 3000 ft
Scattered Clouds 6200 ft
Dew Point 49 °F
Humidity 59%
Rainfall 0.00 in
Snow Depth Not available.
UV 6 out of 12
Pollen Not available.
Air Quality Not available.
Flu Activity Not available.
METAR ESTA 211120Z 24016KT 9999 FEW030 SCT062 15/09 Q1010

More Conditions Fewer Conditions

Pressure 29.83 in
Visibility 6.2 miles
Clouds Few 3000 ft
Scattered Clouds 6200 ft
Dew Point 49 °F
Humidity 59%
Rainfall 0.00 in
Snow Depth Not available.
UV 6 out of 12
Pollen Not available.
Air Quality Not available.
Flu Activity Not available.
METAR ESTA 211120Z 24016KT 9999 FEW030 SCT062 15/09 Q1010

More Conditions Fewer Conditions

10-Day Weather Forecast

Almanac

Astronomy

Aug. 21, 2014 Rise Set
Actual Time 5:48 AM CEST 8:34 PM CEST
Civil Twilight 5:05 AM CEST 9:17 PM CEST
Nautical Twilight 4:08 AM CEST 10:14 PM CEST
Astronomical Twilight 2:50 AM CEST 11:29 PM CEST
Moon 1:43 AM CEST 6:09 PM CEST
Length of Visible Light 16h 11m
Length of Day
14h 45m
Tomorrow will be 4m 36s shorter.
Waning Crescent, 14% of the Moon is Illuminated
Today
Waning Crescent
Aug 25
New
Sep 2
First Quarter
Sep 8
Full
Sep 15
Last Quarter

Yesterday's Extremes

Country Highs Country Lows

Community

WunderPhotos

Upload Photos

1,745,882 photos uploaded!

Nearby

Snow Depth

Not available.

Earthquake Activity

City Distance Mag. Time & Date
No recent earthquake activity has been reported nearby.
Minimum magnitude displayed is 2.5.

Coastal Water Temperatures

Place Temperature
No Stations Reporting

Nearby Weather Stations